Time;durP1;ratioP1;P1;durP2;ratioP2;P2;SDS_P1;SDS_P2;PMS_P1;PMS_P2;Temp;Humidity;BMP_temperature;BMP_pressure;BME280_temperature;BME280_humidity;BME280_pressure;Samples;Min_cycle;Max_cycle;Signal;HPM_P1;HPM_P2
2024/04/10 00:00:47;;;;;;;;;;;;;;;2.82;56.78;95915.50;5422602;26;19948;-68
2024/04/10 00:03:16;;;;;;;;;;;;;;;2.52;57.50;95909.91;5423578;26;19936;-67
2024/04/10 00:05:41;;;;;;;;;;;;;;;2.60;57.48;95909.28;5418897;26;20363;-68
2024/04/10 00:08:07;;;;;;;;;;;;;;;2.76;57.35;95912.38;5412637;26;19948;-68
2024/04/10 00:10:32;;;;;;;;;;;;;;;2.81;57.76;95913.78;5416906;26;20289;-67
2024/04/10 00:12:57;;;;;;;;;;;;;;;2.88;56.68;95913.19;5419044;26;19935;-68
2024/04/10 00:15:22;;;;;;;;;;;;;;;2.85;57.07;95916.06;5428856;26;19932;-68
2024/04/10 00:17:48;;;;;;;;;;;;;;;3.55;55.08;95914.94;5429826;26;19937;-68
2024/04/10 00:20:13;;;;;;;;;;;;;;;3.38;55.41;95924.19;5428451;26;19968;-68
2024/04/10 00:22:38;;;;;;;;;;;;;;;3.18;55.87;95934.53;5430004;26;19929;-67
2024/04/10 00:25:04;;;;;;;;;;;;;;;2.89;57.00;95933.28;5428114;26;19980;-68
2024/04/10 00:27:29;;;;;;;;;;;;;;;3.36;56.11;95931.38;5415042;26;19935;-68
2024/04/10 00:29:55;;;;;;;;;;;;;;;3.16;56.58;95942.56;5419935;26;19941;-67
2024/04/10 00:32:20;;;;;;;;;;;;;;;3.09;56.83;95951.91;5427906;26;19932;-68
2024/04/10 00:34:46;;;;;;;;;;;;;;;3.25;56.75;95934.88;5411043;26;19936;-68
2024/04/10 00:37:11;;;;;;;;;;;;;;;3.09;57.21;95937.94;5428780;26;19968;-68
2024/04/10 00:39:36;;;;;;;;;;;;;;;3.20;56.53;95931.78;5418991;26;20156;-68
2024/04/10 00:42:02;;;;;;;;;;;;;;;2.83;57.93;95949.56;5428109;26;19936;-67
2024/04/10 00:44:27;;;;;;;;;;;;;;;2.21;59.00;95949.88;5422283;26;19928;-68
2024/04/10 00:46:53;;;;;;;;;;;;;;;2.53;58.56;95943.94;5420507;26;19941;-68
2024/04/10 00:49:18;;;;;;;;;;;;;;;1.80;60.18;95944.19;5425632;26;19929;-67
2024/04/10 00:51:43;;;;;;;;;;;;;;;1.81;61.06;95945.84;5419064;26;19935;-67
2024/04/10 00:54:08;;;;;;;;;;;;;;;1.59;62.11;95946.59;5426528;26;19933;-67
2024/04/10 00:56:34;;;;;;;;;;;;;;;2.05;60.64;95952.84;5426222;26;20540;-67
2024/04/10 00:59:02;;;;;;;;;;;;;;;1.72;60.60;95954.41;5424227;26;20512;-67
2024/04/10 01:01:27;;;;;;;;;;;;;;;1.99;60.40;95954.16;5427462;26;19944;-67
2024/04/10 01:03:53;;;;;;;;;;;;;;;2.30;59.08;95956.22;5428520;26;19933;-67
2024/04/10 01:06:18;;;;;;;;;;;;;;;2.43;58.47;95950.88;5429235;26;19942;-68
2024/04/10 01:08:43;;;;;;;;;;;;;;;1.99;60.00;95956.78;5426190;26;20331;-67
2024/04/10 01:11:10;;;;;;;;;;;;;;;2.36;58.90;95957.56;5427645;26;20279;-67
2024/04/10 01:13:35;;;;;;;;;;;;;;;2.31;58.85;95960.53;5420706;26;19938;-67
2024/04/10 01:16:01;;;;;;;;;;;;;;;2.33;58.50;95963.88;5423412;26;19978;-67
2024/04/10 01:18:26;;;;;;;;;;;;;;;1.92;60.13;95960.81;5425737;26;20407;-67
2024/04/10 01:20:51;;;;;;;;;;;;;;;1.73;60.36;95971.84;5416567;26;19928;-67
2024/04/10 01:23:19;;;;;;;;;;;;;;;2.54;57.95;95965.81;5456519;26;20421;-68
2024/04/10 01:25:45;;;;;;;;;;;;;;;2.32;58.52;95972.72;5415942;26;20049;-67
2024/04/10 01:28:10;;;;;;;;;;;;;;;2.82;57.16;95971.53;5417284;26;20423;-67
2024/04/10 01:30:35;;;;;;;;;;;;;;;2.41;57.96;95973.78;5425916;26;19935;-68
2024/04/10 01:33:01;;;;;;;;;;;;;;;2.50;57.59;95961.75;5420958;26;20380;-67
2024/04/10 01:35:26;;;;;;;;;;;;;;;2.74;57.31;95971.31;5417477;26;20000;-67
2024/04/10 01:37:51;;;;;;;;;;;;;;;1.97;59.22;95978.84;5419107;26;19948;-67
2024/04/10 01:40:16;;;;;;;;;;;;;;;1.77;59.75;95977.72;5417964;26;19935;-67
2024/04/10 01:42:45;;;;;;;;;;;;;;;2.11;59.39;95983.06;5407673;26;20232;-67
2024/04/10 01:45:10;;;;;;;;;;;;;;;1.69;60.29;95992.25;5413179;26;19963;-67
2024/04/10 01:47:36;;;;;;;;;;;;;;;1.93;59.99;95998.41;5421718;26;19932;-67
2024/04/10 01:50:01;;;;;;;;;;;;;;;1.79;60.51;95992.41;5424729;26;19933;-68
2024/04/10 01:52:26;;;;;;;;;;;;;;;1.02;62.48;95996.97;5417761;26;19955;-67
2024/04/10 01:54:52;;;;;;;;;;;;;;;0.90;63.57;95993.44;5417883;26;19928;-67
2024/04/10 01:57:18;;;;;;;;;;;;;;;0.71;63.81;96002.59;5422663;26;19936;-67
2024/04/10 01:59:43;;;;;;;;;;;;;;;0.63;64.54;95997.03;5422610;26;20274;-67
2024/04/10 02:02:08;;;;;;;;;;;;;;;0.57;64.74;96006.16;5428340;26;20282;-67
2024/04/10 02:04:34;;;;;;;;;;;;;;;0.58;64.64;96005.22;5420130;26;19944;-67
2024/04/10 02:07:00;;;;;;;;;;;;;;;0.65;64.64;96005.63;5421774;26;19974;-67
2024/04/10 02:09:25;;;;;;;;;;;;;;;0.58;64.60;96015.69;5424460;26;19929;-67
2024/04/10 02:11:50;;;;;;;;;;;;;;;1.09;62.58;96013.94;5426313;26;19955;-68
2024/04/10 02:14:16;;;;;;;;;;;;;;;1.04;62.94;96010.81;5423700;26;19929;-67
2024/04/10 02:16:41;;;;;;;;;;;;;;;0.90;63.53;96011.78;5427413;26;19929;-67
2024/04/10 02:19:07;;;;;;;;;;;;;;;1.66;60.90;96015.28;5425737;26;19943;-67
2024/04/10 02:21:32;;;;;;;;;;;;;;;1.29;60.98;96011.69;5427237;26;19955;-67
2024/04/10 02:23:57;;;;;;;;;;;;;;;1.45;60.84;96013.19;5422579;26;20401;-68
2024/04/10 02:26:22;;;;;;;;;;;;;;;1.87;59.04;96012.81;5409366;26;19929;-67
2024/04/10 02:28:48;;;;;;;;;;;;;;;2.17;58.07;96019.38;5413667;26;19936;-67
2024/04/10 02:31:13;;;;;;;;;;;;;;;2.30;57.52;96021.91;5416867;26;20472;-68
2024/04/10 02:33:38;;;;;;;;;;;;;;;2.60;56.51;96020.53;5414065;26;20340;-67
2024/04/10 02:36:04;;;;;;;;;;;;;;;2.54;56.43;96018.38;5418704;26;19940;-68
2024/04/10 02:38:29;;;;;;;;;;;;;;;2.45;56.18;96027.78;5418211;26;19928;-67
2024/04/10 02:40:55;;;;;;;;;;;;;;;2.41;56.24;96021.09;5421313;26;19943;-68
2024/04/10 02:43:20;;;;;;;;;;;;;;;2.43;56.50;96028.88;5403349;26;20653;-67
2024/04/10 02:45:54;;;;;;;;;;;;;;;2.50;56.31;96032.72;5420058;26;19960;-67
2024/04/10 02:48:20;;;;;;;;;;;;;;;2.37;56.62;96036.28;5421938;26;19929;-67
2024/04/10 02:50:45;;;;;;;;;;;;;;;2.41;56.15;96044.75;5421100;26;20000;-68
2024/04/10 02:53:10;;;;;;;;;;;;;;;2.34;56.24;96048.78;5429037;26;20276;-67
2024/04/10 02:55:36;;;;;;;;;;;;;;;2.25;56.80;96052.97;5423086;26;19933;-67
2024/04/10 02:58:01;;;;;;;;;;;;;;;2.64;55.80;96052.69;5425095;26;19976;-68
2024/04/10 03:00:26;;;;;;;;;;;;;;;2.78;54.63;96059.50;5423408;26;19929;-68
2024/04/10 03:02:52;;;;;;;;;;;;;;;3.00;54.09;96068.38;5429332;26;20302;-67
2024/04/10 03:05:17;;;;;;;;;;;;;;;2.90;54.96;96076.16;5424646;26;20493;-68
2024/04/10 03:07:43;;;;;;;;;;;;;;;3.19;53.75;96082.75;5428340;26;19932;-67
2024/04/10 03:10:09;;;;;;;;;;;;;;;3.36;53.63;96082.25;5429753;26;20107;-67
2024/04/10 03:12:34;;;;;;;;;;;;;;;3.42;53.45;96080.91;5430233;26;19928;-68
2024/04/10 03:15:00;;;;;;;;;;;;;;;3.76;53.67;96083.53;5418746;26;20369;-68
2024/04/10 03:17:26;;;;;;;;;;;;;;;4.03;52.64;96086.69;5424257;26;19956;-67
2024/04/10 03:19:52;;;;;;;;;;;;;;;4.19;51.75;96094.19;5428904;26;19929;-67
2024/04/10 03:22:18;;;;;;;;;;;;;;;4.37;51.85;96097.09;5423391;26;20172;-67
2024/04/10 03:24:43;;;;;;;;;;;;;;;4.79;51.61;96101.53;5414980;26;19965;-67
2024/04/10 03:27:08;;;;;;;;;;;;;;;4.98;50.15;96107.91;5424635;26;19929;-67
2024/04/10 03:29:33;;;;;;;;;;;;;;;4.93;49.95;96112.75;5417845;26;20353;-68
2024/04/10 03:31:59;;;;;;;;;;;;;;;5.21;49.16;96108.59;5429675;26;20408;-68
2024/04/10 03:34:24;;;;;;;;;;;;;;;5.32;48.26;96112.13;5428081;26;19940;-67
2024/04/10 03:36:49;;;;;;;;;;;;;;;5.08;49.35;96111.47;5429436;26;19935;-67
2024/04/10 03:39:16;;;;;;;;;;;;;;;5.06;48.65;96117.81;5423811;26;20060;-67
2024/04/10 03:41:41;;;;;;;;;;;;;;;4.42;50.19;96123.09;5418755;26;20434;-67
2024/04/10 03:44:06;;;;;;;;;;;;;;;4.14;51.32;96120.91;5421680;26;19928;-67
2024/04/10 03:46:32;;;;;;;;;;;;;;;3.81;52.53;96122.66;5426412;26;19929;-67
2024/04/10 03:48:57;;;;;;;;;;;;;;;3.79;52.79;96129.84;5421152;26;20320;-68
2024/04/10 03:51:22;;;;;;;;;;;;;;;3.04;54.77;96138.22;5427955;26;19949;-67
2024/04/10 03:53:48;;;;;;;;;;;;;;;3.15;54.63;96151.41;5425297;26;20288;-67
2024/04/10 03:56:13;;;;;;;;;;;;;;;3.63;52.99;96153.94;5427846;26;20380;-67
2024/04/10 03:58:38;;;;;;;;;;;;;;;3.87;52.93;96155.56;5421947;26;20407;-68
2024/04/10 04:01:03;;;;;;;;;;;;;;;4.01;52.45;96151.84;5424410;26;20457;-67
2024/04/10 04:03:29;;;;;;;;;;;;;;;4.33;51.49;96151.84;5428048;26;19977;-67
2024/04/10 04:05:54;;;;;;;;;;;;;;;4.17;51.57;96164.63;5419441;26;19929;-67
2024/04/10 04:08:20;;;;;;;;;;;;;;;4.26;51.15;96165.69;5427536;26;20446;-67
2024/04/10 04:10:46;;;;;;;;;;;;;;;4.52;51.51;96168.81;5423026;26;19941;-67
2024/04/10 04:13:11;;;;;;;;;;;;;;;4.27;51.07;96164.72;5417864;26;19929;-67
2024/04/10 04:15:36;;;;;;;;;;;;;;;4.57;50.76;96173.72;5424118;26;19935;-68
2024/04/10 04:18:01;;;;;;;;;;;;;;;4.69;50.29;96182.41;5415520;26;19944;-67
2024/04/10 04:20:27;;;;;;;;;;;;;;;4.47;50.27;96180.69;5409160;26;19936;-68
2024/04/10 04:22:52;;;;;;;;;;;;;;;4.48;51.39;96183.22;5428666;26;20391;-67
2024/04/10 04:25:17;;;;;;;;;;;;;;;4.91;50.46;96194.66;5416267;26;19996;-67
2024/04/10 04:27:42;;;;;;;;;;;;;;;4.55;50.20;96199.38;5425581;26;19936;-67
2024/04/10 04:30:08;;;;;;;;;;;;;;;4.94;49.26;96202.31;5428351;26;19929;-67
2024/04/10 04:32:34;;;;;;;;;;;;;;;5.03;49.46;96213.09;5425615;26;19998;-67
2024/04/10 04:34:59;;;;;;;;;;;;;;;4.10;50.96;96217.00;5427253;26;19928;-67
2024/04/10 04:37:24;;;;;;;;;;;;;;;4.40;51.62;96217.28;5423199;26;19984;-67
2024/04/10 04:39:51;;;;;;;;;;;;;;;4.71;49.95;96228.81;5418217;26;19937;-67
2024/04/10 04:42:16;;;;;;;;;;;;;;;5.20;49.14;96233.63;5417056;26;20676;-67
2024/04/10 04:44:42;;;;;;;;;;;;;;;5.18;48.91;96237.38;5420710;26;20022;-67
2024/04/10 04:47:07;;;;;;;;;;;;;;;5.08;48.89;96243.44;5428274;26;20330;-67
2024/04/10 04:49:32;;;;;;;;;;;;;;;4.73;50.39;96254.22;5427334;26;20480;-67
2024/04/10 04:51:58;;;;;;;;;;;;;;;4.82;50.12;96253.47;5420628;26;20273;-67
2024/04/10 04:54:23;;;;;;;;;;;;;;;4.71;50.49;96262.25;5426484;26;20267;-67
2024/04/10 04:56:49;;;;;;;;;;;;;;;3.75;52.45;96271.50;5423317;26;20289;-66
2024/04/10 04:59:16;;;;;;;;;;;;;;;3.44;54.24;96273.81;5427191;26;20001;-66
2024/04/10 05:01:41;;;;;;;;;;;;;;;3.71;53.47;96274.50;5423801;26;20758;-67
2024/04/10 05:05:06;;;;;;;;;;;;;;;3.42;54.06;96275.72;5423943;26;19932;-68
2024/04/10 05:07:00;;;;;;;;;;;;;;;3.62;53.65;96274.25;5410265;26;19932;-67
2024/04/10 05:09:26;;;;;;;;;;;;;;;3.38;54.66;96285.66;5424177;26;20329;-67
2024/04/10 05:11:51;;;;;;;;;;;;;;;3.52;54.50;96283.78;5428159;26;20276;-67
2024/04/10 05:14:17;;;;;;;;;;;;;;;3.19;54.92;96286.19;5401239;26;19984;-67
2024/04/10 05:16:42;;;;;;;;;;;;;;;3.42;54.69;96291.53;5413854;26;20255;-67
2024/04/10 05:19:07;;;;;;;;;;;;;;;3.42;54.43;96291.53;5426787;26;19990;-67
2024/04/10 05:21:32;;;;;;;;;;;;;;;3.54;54.11;96297.69;5424094;26;19933;-67
2024/04/10 05:23:58;;;;;;;;;;;;;;;3.65;53.92;96299.50;5418102;26;20003;-67
2024/04/10 05:26:23;;;;;;;;;;;;;;;3.70;53.99;96304.41;5419951;26;19937;-67
2024/04/10 05:28:48;;;;;;;;;;;;;;;3.86;53.37;96304.06;5417826;26;19953;-67
2024/04/10 05:31:13;;;;;;;;;;;;;;;3.71;53.56;96308.72;5422682;26;19928;-68
2024/04/10 05:33:39;;;;;;;;;;;;;;;3.70;53.91;96309.69;5427270;26;20027;-67
2024/04/10 05:36:04;;;;;;;;;;;;;;;3.68;53.79;96315.88;5426086;26;19932;-67
2024/04/10 05:38:30;;;;;;;;;;;;;;;3.90;53.45;96314.25;5422026;26;19941;-67
2024/04/10 05:40:55;;;;;;;;;;;;;;;3.27;55.02;96325.94;5421432;26;19940;-67
2024/04/10 05:43:21;;;;;;;;;;;;;;;1.58;60.27;96336.03;5409279;26;19958;-67
2024/04/10 05:45:46;;;;;;;;;;;;;;;1.81;60.38;96344.97;5420424;26;19957;-67
2024/04/10 05:48:11;;;;;;;;;;;;;;;1.56;61.03;96354.50;5415167;26;20846;-67
2024/04/10 05:50:37;;;;;;;;;;;;;;;2.06;59.48;96355.56;5422436;26;19988;-67
2024/04/10 05:53:02;;;;;;;;;;;;;;;2.26;58.99;96355.03;5416052;26;19936;-67
2024/04/10 05:55:27;;;;;;;;;;;;;;;2.41;58.46;96359.31;5420668;26;20369;-67
2024/04/10 05:57:53;;;;;;;;;;;;;;;1.86;59.50;96369.13;5417821;26;19929;-67
2024/04/10 06:00:18;;;;;;;;;;;;;;;1.82;60.55;96366.81;5420959;26;20045;-67
2024/04/10 06:02:44;;;;;;;;;;;;;;;2.50;59.06;96361.28;5412827;26;19929;-68
2024/04/10 06:05:09;;;;;;;;;;;;;;;2.47;58.50;96369.38;5413719;26;20284;-67
2024/04/10 06:07:39;;;;;;;;;;;;;;;3.09;56.56;96362.34;5416245;26;19935;-67
2024/04/10 06:10:05;;;;;;;;;;;;;;;3.08;56.19;96367.72;5427455;26;19928;-67
2024/04/10 06:12:30;;;;;;;;;;;;;;;2.83;56.98;96373.00;5426234;26;19929;-67
2024/04/10 06:14:55;;;;;;;;;;;;;;;2.56;57.91;96378.41;5427820;26;20029;-67
2024/04/10 06:17:21;;;;;;;;;;;;;;;2.06;59.44;96384.47;5416171;26;20172;-67
2024/04/10 06:19:47;;;;;;;;;;;;;;;2.19;60.11;96387.09;5427360;26;19953;-67
2024/04/10 06:22:12;;;;;;;;;;;;;;;2.34;59.76;96390.44;5426808;26;19932;-67
2024/04/10 06:24:37;;;;;;;;;;;;;;;1.97;60.50;96392.03;5426925;26;20358;-67
2024/04/10 06:27:03;;;;;;;;;;;;;;;2.16;60.27;96403.06;5423385;26;20369;-68
2024/04/10 06:29:29;;;;;;;;;;;;;;;1.86;61.30;96411.16;5431122;26;19928;-67
2024/04/10 06:31:54;;;;;;;;;;;;;;;1.60;61.42;96412.91;5411040;26;19960;-68
2024/04/10 06:34:20;;;;;;;;;;;;;;;1.29;63.05;96410.47;5415041;26;20537;-67
2024/04/10 06:36:45;;;;;;;;;;;;;;;1.33;62.96;96419.81;5424219;26;19936;-67
2024/04/10 06:39:10;;;;;;;;;;;;;;;1.88;61.58;96418.94;5424826;26;19928;-67
2024/04/10 06:41:36;;;;;;;;;;;;;;;1.68;62.01;96429.00;5421860;26;20413;-67
2024/04/10 06:44:01;;;;;;;;;;;;;;;2.04;61.57;96431.84;5426973;26;19929;-67
2024/04/10 06:46:26;;;;;;;;;;;;;;;1.73;61.99;96429.50;5422109;26;19943;-67
2024/04/10 06:48:53;;;;;;;;;;;;;;;1.82;62.31;96427.22;5422112;26;20013;-68
2024/04/10 06:51:18;;;;;;;;;;;;;;;2.30;60.31;96431.00;5422906;26;19941;-67
2024/04/10 06:53:43;;;;;;;;;;;;;;;2.86;58.84;96427.97;5425434;26;19999;-67
2024/04/10 06:56:09;;;;;;;;;;;;;;;3.26;57.38;96423.44;5419503;26;19968;-68
2024/04/10 06:58:36;;;;;;;;;;;;;;;3.99;55.96;96419.91;5431558;26;20237;-68
2024/04/10 07:01:02;;;;;;;;;;;;;;;4.25;55.41;96431.06;5427096;26;20247;-68
2024/04/10 07:03:31;;;;;;;;;;;;;;;3.92;55.12;96430.88;5429193;26;20381;-68
2024/04/10 07:06:05;;;;;;;;;;;;;;;3.76;56.19;96438.28;5428600;26;20288;-68
2024/04/10 07:08:31;;;;;;;;;;;;;;;3.47;57.45;96434.22;5422744;26;19930;-68
2024/04/10 07:10:56;;;;;;;;;;;;;;;3.41;58.10;96446.00;5421812;26;19939;-68
2024/04/10 07:13:21;;;;;;;;;;;;;;;3.68;56.13;96442.31;5425179;26;19936;-68
2024/04/10 07:15:55;;;;;;;;;;;;;;;3.45;57.05;96449.28;5419657;26;20318;-68
2024/04/10 07:18:20;;;;;;;;;;;;;;;3.16;59.32;96452.19;5422233;26;19961;-68
2024/04/10 07:20:46;;;;;;;;;;;;;;;3.85;56.03;96442.00;5414855;26;19929;-68
2024/04/10 07:23:11;;;;;;;;;;;;;;;4.03;56.29;96445.91;5425012;26;19932;-68
2024/04/10 07:25:37;;;;;;;;;;;;;;;3.49;56.36;96447.25;5421168;26;20056;-68
2024/04/10 07:28:03;;;;;;;;;;;;;;;2.58;58.46;96466.75;5430111;26;20449;-67
2024/04/10 07:30:28;;;;;;;;;;;;;;;2.20;61.11;96464.97;5430588;26;19944;-67
2024/04/10 07:32:53;;;;;;;;;;;;;;;2.20;61.36;96468.44;5415884;26;19940;-68
2024/04/10 07:35:18;;;;;;;;;;;;;;;2.53;61.82;96469.69;5430845;26;20636;-68
2024/04/10 07:37:44;;;;;;;;;;;;;;;2.24;61.72;96474.31;5425607;26;20249;-67
2024/04/10 07:40:15;;;;;;;;;;;;;;;2.47;61.18;96470.13;5422046;26;20267;-68
2024/04/10 07:42:40;;;;;;;;;;;;;;;2.58;61.54;96481.69;5427809;26;20001;-68
2024/04/10 07:45:06;;;;;;;;;;;;;;;2.83;58.71;96487.88;5429892;26;20394;-68
2024/04/10 07:47:31;;;;;;;;;;;;;;;3.40;58.59;96491.72;5428647;26;19967;-68
2024/04/10 07:49:56;;;;;;;;;;;;;;;3.70;56.81;96489.59;5423861;26;20262;-67
2024/04/10 07:52:22;;;;;;;;;;;;;;;3.75;58.73;96486.66;5420765;26;20373;-67
2024/04/10 07:54:47;;;;;;;;;;;;;;;3.02;58.76;96503.19;5416669;26;19962;-68
2024/04/10 07:57:13;;;;;;;;;;;;;;;2.74;59.51;96497.25;5415938;26;19940;-67
2024/04/10 07:59:38;;;;;;;;;;;;;;;3.42;58.51;96496.88;5415230;26;20401;-67
2024/04/10 08:02:03;;;;;;;;;;;;;;;3.66;56.20;96510.06;5412221;26;19936;-67
2024/04/10 08:04:29;;;;;;;;;;;;;;;3.94;55.13;96504.53;5422231;26;19932;-67
2024/04/10 08:06:55;;;;;;;;;;;;;;;4.71;52.60;96507.59;5419991;26;20083;-66
2024/04/10 08:09:22;;;;;;;;;;;;;;;5.17;52.65;96508.44;5429704;26;19935;-67
2024/04/10 08:11:47;;;;;;;;;;;;;;;4.41;52.54;96509.00;5426610;26;19935;-67
2024/04/10 08:14:12;;;;;;;;;;;;;;;5.34;50.16;96506.28;5423312;26;19929;-68
2024/04/10 08:16:37;;;;;;;;;;;;;;;5.65;49.19;96517.00;5426931;26;20044;-67
2024/04/10 08:19:03;;;;;;;;;;;;;;;5.64;49.85;96523.25;5424389;26;19928;-67
2024/04/10 08:21:33;;;;;;;;;;;;;;;5.69;49.91;96536.09;5415989;26;19928;-67
2024/04/10 08:23:58;;;;;;;;;;;;;;;5.07;50.50;96536.56;5418316;26;19967;-66
2024/04/10 08:26:24;;;;;;;;;;;;;;;4.21;51.93;96539.53;5420583;26;20139;-67
2024/04/10 08:28:49;;;;;;;;;;;;;;;3.84;53.40;96541.28;5422458;26;20230;-67
2024/04/10 08:31:15;;;;;;;;;;;;;;;3.62;53.68;96545.50;5427656;26;19935;-66
2024/04/10 08:33:40;;;;;;;;;;;;;;;3.63;53.11;96557.69;5427837;26;20373;-66
2024/04/10 08:36:08;;;;;;;;;;;;;;;3.64;54.13;96556.75;5428225;26;19936;-66
2024/04/10 08:38:33;;;;;;;;;;;;;;;3.93;53.54;96560.84;5420481;26;20422;-66
2024/04/10 08:41:00;;;;;;;;;;;;;;;4.22;53.77;96557.00;5420433;26;20251;-67
2024/04/10 08:43:26;;;;;;;;;;;;;;;4.35;52.65;96549.84;5426113;26;19997;-68
2024/04/10 08:45:51;;;;;;;;;;;;;;;3.51;54.79;96563.84;5426949;26;19940;-66
2024/04/10 08:48:17;;;;;;;;;;;;;;;3.89;53.60;96562.88;5425937;26;19928;-66
2024/04/10 08:50:42;;;;;;;;;;;;;;;3.41;55.61;96572.38;5426215;26;20460;-67
2024/04/10 08:53:08;;;;;;;;;;;;;;;3.36;56.11;96571.84;5423426;26;19929;-66
2024/04/10 08:55:34;;;;;;;;;;;;;;;3.91;52.79;96576.75;5425997;26;19998;-67
2024/04/10 08:58:00;;;;;;;;;;;;;;;4.20;52.99;96580.84;5419837;26;19929;-66
2024/04/10 09:00:25;;;;;;;;;;;;;;;4.24;52.84;96586.72;5423415;26;20001;-66
2024/04/10 09:02:50;;;;;;;;;;;;;;;3.99;54.66;96586.75;5418450;26;19940;-67
2024/04/10 09:05:36;;;;;;;;;;;;;;;3.98;54.87;96590.31;5426499;26;20414;-66
2024/04/10 09:08:02;;;;;;;;;;;;;;;4.45;52.90;96593.03;5422110;26;19949;-66
2024/04/10 09:10:27;;;;;;;;;;;;;;;5.35;50.72;96584.53;5426783;26;20234;-67
2024/04/10 09:13:03;;;;;;;;;;;;;;;5.67;48.49;96598.78;5414924;26;19928;-67
2024/04/10 09:15:29;;;;;;;;;;;;;;;5.68;48.03;96598.66;5424270;26;19997;-66
2024/04/10 09:17:54;;;;;;;;;;;;;;;6.16;46.60;96591.34;5418817;26;20431;-66
2024/04/10 09:20:20;;;;;;;;;;;;;;;6.20;46.33;96599.84;5414107;26;20336;-66
2024/04/10 09:22:45;;;;;;;;;;;;;;;6.31;46.52;96598.94;5422769;26;19940;-66
2024/04/10 09:25:11;;;;;;;;;;;;;;;6.92;44.67;96597.47;5422051;26;19929;-67
2024/04/10 09:27:37;;;;;;;;;;;;;;;5.08;48.76;96610.34;5421349;26;19928;-67
2024/04/10 09:30:02;;;;;;;;;;;;;;;5.04;49.66;96608.03;5426518;26;19961;-68
2024/04/10 09:32:27;;;;;;;;;;;;;;;5.57;48.33;96603.94;5424526;26;19928;-67
2024/04/10 09:34:52;;;;;;;;;;;;;;;5.82;47.14;96600.19;5407945;26;20310;-67
2024/04/10 09:37:19;;;;;;;;;;;;;;;5.85;47.91;96607.06;5426263;26;19935;-66
2024/04/10 09:39:44;;;;;;;;;;;;;;;5.62;45.86;96612.38;5419991;26;19928;-67
2024/04/10 09:42:13;;;;;;;;;;;;;;;5.64;45.74;96610.44;5422720;26;20272;-67
2024/04/10 09:44:38;;;;;;;;;;;;;;;6.28;44.71;96604.50;5425229;26;20339;-66
2024/04/10 09:47:04;;;;;;;;;;;;;;;6.30;46.10;96602.56;5423839;26;19933;-67
2024/04/10 09:49:45;;;;;;;;;;;;;;;6.48;44.55;96597.56;5425459;26;20362;-67
2024/04/10 09:52:13;;;;;;;;;;;;;;;7.22;41.66;96595.81;5415750;26;19994;-67
2024/04/10 09:54:39;;;;;;;;;;;;;;;7.19;42.34;96593.41;5428316;26;20313;-67
2024/04/10 09:57:04;;;;;;;;;;;;;;;6.59;42.85;96608.13;5425278;26;20325;-67
2024/04/10 09:59:29;;;;;;;;;;;;;;;6.11;44.07;96610.22;5426620;26;19928;-67
2024/04/10 10:02:04;;;;;;;;;;;;;;;5.40;44.62;96614.06;5417270;26;20418;-67
2024/04/10 10:04:39;;;;;;;;;;;;;;;5.30;46.93;96613.94;5419613;26;19933;-67
2024/04/10 10:07:04;;;;;;;;;;;;;;;5.65;45.60;96613.91;5427109;26;19952;-66
2024/04/10 10:09:29;;;;;;;;;;;;;;;6.09;44.40;96613.94;5420994;26;19996;-67
2024/04/10 10:12:00;;;;;;;;;;;;;;;6.55;43.92;96619.06;5426693;26;19933;-67
2024/04/10 10:14:26;;;;;;;;;;;;;;;6.25;44.94;96624.94;5425559;26;19936;-67
2024/04/10 10:16:51;;;;;;;;;;;;;;;5.90;44.93;96628.66;5415260;26;19929;-67
2024/04/10 10:19:20;;;;;;;;;;;;;;;6.08;45.43;96630.75;5420497;26;19932;-66
2024/04/10 10:21:45;;;;;;;;;;;;;;;6.26;45.03;96623.16;5413290;26;20000;-67
2024/04/10 10:24:12;;;;;;;;;;;;;;;6.33;45.09;96626.13;5423536;26;19940;-67
2024/04/10 10:26:37;;;;;;;;;;;;;;;6.58;44.06;96632.06;5415924;26;19935;-67
2024/04/10 10:29:03;;;;;;;;;;;;;;;5.93;44.67;96633.69;5420953;26;20295;-67
2024/04/10 10:31:28;;;;;;;;;;;;;;;5.91;44.71;96632.16;5421157;26;19929;-66
2024/04/10 10:34:00;;;;;;;;;;;;;;;6.02;45.78;96644.50;5418180;26;19932;-67
2024/04/10 10:36:25;;;;;;;;;;;;;;;5.85;45.38;96639.59;5415123;26;19929;-67
2024/04/10 10:39:05;;;;;;;;;;;;;;;6.32;43.90;96642.97;5425301;26;19936;-67
2024/04/10 10:41:30;;;;;;;;;;;;;;;6.59;44.06;96649.59;5413540;26;19929;-67
2024/04/10 10:43:59;;;;;;;;;;;;;;;6.52;42.86;96653.75;5414744;26;19940;-67
2024/04/10 10:46:24;;;;;;;;;;;;;;;6.73;44.44;96651.94;5424783;26;19929;-67
2024/04/10 10:48:49;;;;;;;;;;;;;;;7.76;41.13;96643.25;5416957;26;19955;-67
2024/04/10 10:51:17;;;;;;;;;;;;;;;7.90;41.35;96641.25;5424571;26;20249;-67
2024/04/10 10:53:43;;;;;;;;;;;;;;;7.39;41.45;96654.44;5383697;26;19969;-67
2024/04/10 10:56:08;;;;;;;;;;;;;;;7.33;41.04;96645.19;5422087;26;20261;-67
2024/04/10 10:58:33;;;;;;;;;;;;;;;8.55;38.36;96643.44;5421011;26;19940;-67
2024/04/10 11:00:58;;;;;;;;;;;;;;;9.00;37.61;96638.50;5424906;26;20361;-67
2024/04/10 11:03:25;;;;;;;;;;;;;;;9.69;36.81;96634.81;5422329;26;20285;-66
2024/04/10 11:05:50;;;;;;;;;;;;;;;9.54;37.52;96642.41;5427196;26;19968;-67
2024/04/10 11:08:22;;;;;;;;;;;;;;;9.19;36.96;96650.09;5418585;26;20291;-67
2024/04/10 11:10:48;;;;;;;;;;;;;;;9.17;36.38;96652.03;5425779;26;19935;-67
2024/04/10 11:13:13;;;;;;;;;;;;;;;9.25;36.93;96657.47;5423626;26;19929;-67
2024/04/10 11:15:42;;;;;;;;;;;;;;;9.52;36.42;96642.53;5429781;26;20253;-67
2024/04/10 11:18:08;;;;;;;;;;;;;;;9.77;34.91;96650.00;5423915;26;19929;-67
2024/04/10 11:20:33;;;;;;;;;;;;;;;10.21;34.52;96649.38;5421187;26;20111;-67
2024/04/10 11:23:02;;;;;;;;;;;;;;;9.33;37.51;96652.28;5408949;26;20447;-68
2024/04/10 11:25:30;;;;;;;;;;;;;;;9.53;35.74;96656.69;5419554;26;19961;-67
2024/04/10 11:27:58;;;;;;;;;;;;;;;8.25;37.50;96665.59;5411508;26;19929;-67
2024/04/10 11:30:24;;;;;;;;;;;;;;;8.76;36.90;96655.72;5426063;26;20118;-67
2024/04/10 11:32:49;;;;;;;;;;;;;;;9.04;36.07;96660.28;5420730;26;20382;-68
2024/04/10 11:35:15;;;;;;;;;;;;;;;8.19;39.04;96666.97;5455743;26;20444;-68
2024/04/10 11:37:40;;;;;;;;;;;;;;;7.85;38.90;96670.81;5418897;26;19928;-68
2024/04/10 11:40:11;;;;;;;;;;;;;;;7.91;39.48;96672.94;5428427;26;19929;-68
2024/04/10 11:42:37;;;;;;;;;;;;;;;7.64;40.77;96668.19;5415724;26;19935;-68
2024/04/10 11:45:02;;;;;;;;;;;;;;;7.58;40.78;96666.09;5428372;26;19929;-68
2024/04/10 11:47:28;;;;;;;;;;;;;;;7.24;41.38;96675.13;5428577;26;20249;-68
2024/04/10 11:49:53;;;;;;;;;;;;;;;6.62;42.51;96674.00;5428442;26;20205;-68
2024/04/10 11:52:18;;;;;;;;;;;;;;;7.00;42.02;96677.06;5418595;26;19948;-68
2024/04/10 11:54:44;;;;;;;;;;;;;;;7.47;41.48;96681.09;5414248;26;19977;-68
2024/04/10 11:57:09;;;;;;;;;;;;;;;7.38;40.77;96674.78;5427664;26;20324;-68
2024/04/10 11:59:34;;;;;;;;;;;;;;;8.13;39.95;96680.81;5429255;26;19936;-68
2024/04/10 12:02:00;;;;;;;;;;;;;;;8.27;39.19;96682.22;5428324;26;19935;-68
2024/04/10 12:04:25;;;;;;;;;;;;;;;8.60;39.07;96687.28;5427836;26;19928;-68
2024/04/10 12:06:50;;;;;;;;;;;;;;;8.65;38.50;96685.91;5426975;26;19935;-68
2024/04/10 12:09:16;;;;;;;;;;;;;;;7.41;40.97;96692.22;5421216;26;19928;-68
2024/04/10 12:11:41;;;;;;;;;;;;;;;7.05;42.63;96694.38;5428927;26;19928;-68
2024/04/10 12:14:06;;;;;;;;;;;;;;;5.50;45.08;96700.50;5427553;26;20288;-68
2024/04/10 12:16:31;;;;;;;;;;;;;;;5.45;46.83;96692.94;5428755;26;19929;-68
2024/04/10 12:18:57;;;;;;;;;;;;;;;6.03;45.69;96686.66;5428469;26;19947;-68
2024/04/10 12:21:22;;;;;;;;;;;;;;;6.47;45.04;96693.78;5428403;26;19928;-68
2024/04/10 12:23:47;;;;;;;;;;;;;;;6.06;44.43;96694.31;5427978;26;19965;-68
2024/04/10 12:26:14;;;;;;;;;;;;;;;6.09;44.04;96691.44;5422065;26;19929;-68
2024/04/10 12:28:39;;;;;;;;;;;;;;;5.88;43.58;96698.47;5424937;26;19928;-68
2024/04/10 12:31:04;;;;;;;;;;;;;;;6.02;42.96;96690.25;5428738;26;19928;-68
2024/04/10 12:33:30;;;;;;;;;;;;;;;6.52;43.01;96694.25;5425729;26;19929;-67
2024/04/10 12:38:43;;;;;;;;;;;;;;;7.17;41.11;96685.38;5410764;26;19936;-68
2024/04/10 12:41:08;;;;;;;;;;;;;;;7.42;39.44;96685.97;5425231;26;19935;-67
2024/04/10 12:43:34;;;;;;;;;;;;;;;7.83;40.04;96695.78;5417668;26;19948;-67
2024/04/10 12:45:59;;;;;;;;;;;;;;;8.07;39.22;96698.09;5426828;26;19929;-67
2024/04/10 12:48:25;;;;;;;;;;;;;;;7.89;38.76;96693.44;5420823;26;19937;-67
2024/04/10 12:50:51;;;;;;;;;;;;;;;8.20;37.88;96694.34;5408537;26;19936;-67
2024/04/10 12:53:16;;;;;;;;;;;;;;;8.02;40.22;96698.50;5412863;26;19963;-67